createdAt,value
2023-11-25T00:00:29.967Z,982.4278
2023-11-25T00:01:30.123Z,982.4451
2023-11-25T00:02:29.968Z,982.4722
2023-11-25T00:03:29.981Z,982.4975
2023-11-25T00:04:29.958Z,982.5162
2023-11-25T00:05:29.935Z,982.5461
2023-11-25T00:06:29.938Z,982.5613
2023-11-25T00:07:29.964Z,982.5847
2023-11-25T00:08:29.937Z,982.5945
2023-11-25T00:09:29.942Z,982.6174
2023-11-25T00:10:29.951Z,982.633
2023-11-25T00:11:30.327Z,982.668
2023-11-25T00:12:29.938Z,982.6889
2023-11-25T00:13:29.981Z,982.726
2023-11-25T00:14:29.987Z,982.7444
2023-11-25T00:15:29.955Z,982.7816
2023-11-25T00:16:29.994Z,982.7905
2023-11-25T00:17:30.209Z,982.7968
2023-11-25T00:18:29.943Z,982.8049
2023-11-25T00:19:29.997Z,982.7938
2023-11-25T00:20:29.940Z,982.7872
2023-11-25T00:21:29.941Z,982.8116
2023-11-25T00:22:29.964Z,982.8013
2023-11-25T00:23:29.946Z,982.813
2023-11-25T00:24:29.938Z,982.8298
2023-11-25T00:25:29.964Z,982.8533
2023-11-25T00:26:29.944Z,982.8728
2023-11-25T00:27:29.938Z,982.8688
2023-11-25T00:28:29.972Z,982.8663
2023-11-25T00:29:29.944Z,982.8469
2023-11-25T00:30:29.939Z,982.8542
2023-11-25T00:31:29.970Z,982.8711
2023-11-25T00:32:29.948Z,982.8923
2023-11-25T00:33:29.991Z,982.9051
2023-11-25T00:34:30.040Z,982.9194
2023-11-25T00:35:29.948Z,982.9554
2023-11-25T00:36:29.953Z,982.9705
2023-11-25T00:37:29.993Z,983.0084
2023-11-25T00:38:29.950Z,983.0477
2023-11-25T00:39:29.942Z,983.0706
2023-11-25T00:40:30.120Z,983.1019
2023-11-25T00:41:29.948Z,983.1297
2023-11-25T00:42:29.947Z,983.1489
2023-11-25T00:43:29.979Z,983.1749
2023-11-25T00:44:29.952Z,983.2058
2023-11-25T00:45:29.960Z,983.2368
2023-11-25T00:46:30.045Z,983.2814
2023-11-25T00:47:30.023Z,983.28
2023-11-25T00:48:29.965Z,983.2734
2023-11-25T00:49:29.969Z,983.2896
2023-11-25T00:50:29.944Z,983.3083
2023-11-25T00:51:29.944Z,983.3221
2023-11-25T00:52:29.981Z,983.3378
2023-11-25T00:53:29.946Z,983.355
2023-11-25T00:54:29.943Z,983.3723
2023-11-25T00:55:29.956Z,983.3691
2023-11-25T00:56:29.948Z,983.3653
2023-11-25T00:57:29.943Z,983.3834
2023-11-25T00:58:29.993Z,983.3873
2023-11-25T00:59:29.951Z,983.3898
2023-11-25T01:00:29.942Z,983.3842
2023-11-25T01:01:30.009Z,983.3881
2023-11-25T01:02:30.089Z,983.4022
2023-11-25T01:03:30.069Z,983.397
2023-11-25T01:04:30.034Z,983.3973
2023-11-25T01:05:29.946Z,983.4213
2023-11-25T01:06:29.950Z,983.4537
2023-11-25T01:07:29.969Z,983.5203
2023-11-25T01:08:29.973Z,983.5786
2023-11-25T01:09:29.950Z,983.6401
2023-11-25T01:10:29.985Z,983.69
2023-11-25T01:11:29.950Z,983.7131
2023-11-25T01:12:29.955Z,983.7197
2023-11-25T01:13:30.002Z,983.7399
2023-11-25T01:14:29.957Z,983.7491
2023-11-25T01:15:29.949Z,983.7645
2023-11-25T01:16:30.065Z,983.8003
2023-11-25T01:17:30.013Z,983.8452
2023-11-25T01:18:29.950Z,983.8881
2023-11-25T01:19:30.082Z,983.9138
2023-11-25T01:20:29.961Z,983.9286
2023-11-25T01:21:29.956Z,983.9562
2023-11-25T01:22:30.009Z,984.0036
2023-11-25T01:23:29.956Z,984.0204
2023-11-25T01:24:29.950Z,984.0416
2023-11-25T01:25:29.972Z,984.0552
2023-11-25T01:26:29.954Z,984.0765
2023-11-25T01:27:29.952Z,984.072
2023-11-25T01:28:29.993Z,984.0851
2023-11-25T01:29:29.961Z,984.0919
2023-11-25T01:30:29.964Z,984.1142
2023-11-25T01:31:30.012Z,984.1314
2023-11-25T01:32:30.010Z,984.1498
2023-11-25T01:33:29.956Z,984.1641
2023-11-25T01:34:29.998Z,984.2084
2023-11-25T01:35:29.955Z,984.2375
2023-11-25T01:36:29.957Z,984.2781
2023-11-25T01:37:30.030Z,984.289
2023-11-25T01:38:29.971Z,984.2671
2023-11-25T01:39:29.962Z,984.2993
2023-11-25T01:40:29.978Z,984.331
2023-11-25T01:41:29.957Z,984.3436
2023-11-25T01:42:29.963Z,984.3709
2023-11-25T01:43:29.981Z,984.4009
2023-11-25T01:44:29.970Z,984.4241
2023-11-25T01:45:29.997Z,984.4295
2023-11-25T01:46:29.993Z,984.4374
2023-11-25T01:47:29.960Z,984.4329
2023-11-25T01:48:29.956Z,984.4174
2023-11-25T01:49:29.997Z,984.3933
2023-11-25T01:50:29.958Z,984.373
2023-11-25T01:51:29.962Z,984.3625
2023-11-25T01:52:30.056Z,984.3524
2023-11-25T01:53:29.959Z,984.3409
2023-11-25T01:54:29.967Z,984.3474
2023-11-25T01:55:29.992Z,984.3459
2023-11-25T01:56:29.968Z,984.3597
2023-11-25T01:57:29.967Z,984.3822
2023-11-25T01:58:30.028Z,984.4233
2023-11-25T01:59:29.976Z,984.4156
2023-11-25T02:00:30.042Z,984.4441
2023-11-25T02:01:30.218Z,984.4689
2023-11-25T02:02:30.204Z,984.5039
2023-11-25T02:03:29.970Z,984.5297
2023-11-25T02:04:30.019Z,984.543
2023-11-25T02:05:30.027Z,984.5645
2023-11-25T02:06:29.969Z,984.5747
2023-11-25T02:07:30.001Z,984.5698
2023-11-25T02:08:30.007Z,984.5859
2023-11-25T02:09:29.972Z,984.6085
2023-11-25T02:10:29.999Z,984.6372
2023-11-25T02:11:29.973Z,984.645
2023-11-25T02:12:29.990Z,984.6403
2023-11-25T02:13:30.006Z,984.655
2023-11-25T02:14:29.972Z,984.6809
2023-11-25T02:15:29.968Z,984.6841
2023-11-25T02:16:30.029Z,984.695
2023-11-25T02:17:30.079Z,984.6906
2023-11-25T02:18:30.016Z,984.676
2023-11-25T02:19:30.612Z,984.6764
2023-11-25T02:20:29.965Z,984.6794
2023-11-25T02:21:29.975Z,984.6694
2023-11-25T02:22:30.001Z,984.6917
2023-11-25T02:23:29.967Z,984.7046
2023-11-25T02:24:29.967Z,984.7257
2023-11-25T02:25:29.992Z,984.7333
2023-11-25T02:26:29.966Z,984.7501
2023-11-25T02:27:29.990Z,984.7684
2023-11-25T02:28:29.988Z,984.7849
2023-11-25T02:29:29.967Z,984.8061
2023-11-25T02:30:29.970Z,984.8284
2023-11-25T02:31:30.092Z,984.8564
2023-11-25T02:32:30.072Z,984.8699
2023-11-25T02:33:29.966Z,984.8694
2023-11-25T02:34:30.012Z,984.8794
2023-11-25T02:35:29.971Z,984.8783
2023-11-25T02:36:29.971Z,984.9043
2023-11-25T02:37:29.983Z,984.9241
2023-11-25T02:38:29.974Z,984.938
2023-11-25T02:39:29.993Z,984.9733
2023-11-25T02:40:30.000Z,985.0078
2023-11-25T02:41:29.987Z,985.0625
2023-11-25T02:42:29.971Z,985.1153
2023-11-25T02:43:30.010Z,985.1742
2023-11-25T02:44:29.990Z,985.2314
2023-11-25T02:45:29.971Z,985.2679
2023-11-25T02:46:30.046Z,985.3013
2023-11-25T02:47:30.035Z,985.3444
2023-11-25T02:48:29.994Z,985.3786
2023-11-25T02:49:30.001Z,985.4271
2023-11-25T02:50:29.971Z,985.4536
2023-11-25T02:51:29.970Z,985.4902
2023-11-25T02:52:30.014Z,985.5222
2023-11-25T02:53:29.973Z,985.5416
2023-11-25T02:54:29.971Z,985.5617
2023-11-25T02:55:30.004Z,985.563
2023-11-25T02:56:29.984Z,985.5883
2023-11-25T02:57:29.993Z,985.6106
2023-11-25T02:58:30.031Z,985.61
2023-11-25T02:59:29.996Z,985.6264
2023-11-25T03:00:29.973Z,985.6465
2023-11-25T03:01:30.106Z,985.6568
2023-11-25T03:02:30.214Z,985.6756
2023-11-25T03:03:29.998Z,985.687
2023-11-25T03:04:29.999Z,985.7144
2023-11-25T03:05:29.986Z,985.7294
2023-11-25T03:06:29.974Z,985.7455
2023-11-25T03:07:30.018Z,985.7615
2023-11-25T03:08:29.979Z,985.7698
2023-11-25T03:09:29.982Z,985.7929
2023-11-25T03:10:30.001Z,985.83
2023-11-25T03:11:29.985Z,985.8505
2023-11-25T03:12:29.974Z,985.8865
2023-11-25T03:13:30.020Z,985.9083
2023-11-25T03:14:30.020Z,985.9543
2023-11-25T03:15:29.978Z,985.985
2023-11-25T03:16:30.097Z,986.0042
2023-11-25T03:17:30.019Z,986.0201
2023-11-25T03:18:29.978Z,986.0403
2023-11-25T03:19:29.998Z,986.0588
2023-11-25T03:20:29.981Z,986.0555
2023-11-25T03:21:29.984Z,986.0425
2023-11-25T03:22:29.998Z,986.0309
2023-11-25T03:23:29.981Z,986.038
2023-11-25T03:24:29.983Z,986.0676
2023-11-25T03:25:30.062Z,986.1028
2023-11-25T03:26:29.982Z,986.1364
2023-11-25T03:27:29.980Z,986.1592
2023-11-25T03:28:30.045Z,986.1604
2023-11-25T03:29:29.980Z,986.1752
2023-11-25T03:30:29.980Z,986.1777
2023-11-25T03:31:30.072Z,986.1841
2023-11-25T03:32:30.036Z,986.186
2023-11-25T03:33:29.983Z,986.1761
2023-11-25T03:34:29.998Z,986.1633
2023-11-25T03:35:30.025Z,986.142
2023-11-25T03:36:30.006Z,986.1418
2023-11-25T03:37:30.125Z,986.1579
2023-11-25T03:38:29.999Z,986.1611
2023-11-25T03:39:29.989Z,986.1654
2023-11-25T03:40:30.058Z,986.173
2023-11-25T03:41:29.983Z,986.1778
2023-11-25T03:42:29.985Z,986.1667
2023-11-25T03:43:30.008Z,986.1671
2023-11-25T03:44:29.985Z,986.1653
2023-11-25T03:45:30.009Z,986.1764
2023-11-25T03:46:30.037Z,986.2042
2023-11-25T03:47:30.066Z,986.226
2023-11-25T03:48:29.990Z,986.2628
2023-11-25T03:49:30.008Z,986.2849
2023-11-25T03:50:29.991Z,986.3052
2023-11-25T03:51:29.986Z,986.3326
2023-11-25T03:52:30.021Z,986.3738
2023-11-25T03:53:29.984Z,986.4177
2023-11-25T03:54:29.989Z,986.4503
2023-11-25T03:55:30.049Z,986.5039
2023-11-25T03:56:29.990Z,986.5496
2023-11-25T03:57:29.991Z,986.5912
2023-11-25T03:58:30.010Z,986.6494
2023-11-25T03:59:29.992Z,986.6967
2023-11-25T04:00:29.989Z,986.7227
2023-11-25T04:01:30.061Z,986.7656
2023-11-25T04:02:30.088Z,986.8028
2023-11-25T04:03:30.010Z,986.8514
2023-11-25T04:04:30.108Z,986.8774
2023-11-25T04:05:29.992Z,986.9099
2023-11-25T04:06:29.999Z,986.9374
2023-11-25T04:07:30.022Z,986.9728
2023-11-25T04:08:29.988Z,987.0145
2023-11-25T04:09:30.001Z,987.0592
2023-11-25T04:10:30.012Z,987.0696
2023-11-25T04:11:29.993Z,987.0919
2023-11-25T04:12:30.016Z,987.1156
2023-11-25T04:13:30.083Z,987.1583
2023-11-25T04:14:29.993Z,987.1761
2023-11-25T04:15:29.988Z,987.2101
2023-11-25T04:16:30.071Z,987.2342
2023-11-25T04:17:30.070Z,987.2575
2023-11-25T04:18:30.002Z,987.3006
2023-11-25T04:19:30.017Z,987.3136
2023-11-25T04:20:31.056Z,987.3338
2023-11-25T04:21:29.993Z,987.3582
2023-11-25T04:22:30.007Z,987.3945
2023-11-25T04:23:29.996Z,987.4055
2023-11-25T04:24:32.068Z,987.4221
2023-11-25T04:25:31.139Z,987.4451
2023-11-25T04:26:29.992Z,987.4792
2023-11-25T04:27:30.000Z,987.5129
2023-11-25T04:28:30.027Z,987.5516
2023-11-25T04:29:29.992Z,987.5792
2023-11-25T04:30:29.993Z,987.5869
2023-11-25T04:31:30.075Z,987.603
2023-11-25T04:32:30.066Z,987.6121
2023-11-25T04:33:29.994Z,987.6268
2023-11-25T04:34:30.013Z,987.6409
2023-11-25T04:35:29.991Z,987.6658
2023-11-25T04:36:29.996Z,987.7034
2023-11-25T04:37:30.024Z,987.7378
2023-11-25T04:38:29.998Z,987.7349
2023-11-25T04:39:30.003Z,987.7377
2023-11-25T04:40:30.031Z,987.7406
2023-11-25T04:41:30.040Z,987.7413
2023-11-25T04:42:30.002Z,987.7188
2023-11-25T04:43:30.046Z,987.7215
2023-11-25T04:44:29.996Z,987.7242
2023-11-25T04:45:29.995Z,987.7346
2023-11-25T04:46:30.048Z,987.7452
2023-11-25T04:47:30.056Z,987.7512
2023-11-25T04:48:30.032Z,987.7502
2023-11-25T04:49:30.027Z,987.7503
2023-11-25T04:50:30.002Z,987.7439
2023-11-25T04:51:30.004Z,987.7592
2023-11-25T04:52:30.003Z,987.7648
2023-11-25T04:53:30.001Z,987.7793
2023-11-25T04:54:30.007Z,987.8118
2023-11-25T04:55:30.159Z,987.837
2023-11-25T04:56:30.001Z,987.8608
2023-11-25T04:57:30.006Z,987.8675
2023-11-25T04:58:30.020Z,987.8876
2023-11-25T04:59:29.999Z,987.9073
2023-11-25T05:00:30.014Z,987.9478
2023-11-25T05:01:30.084Z,987.9897
2023-11-25T05:02:30.087Z,988.0198
2023-11-25T05:03:30.041Z,988.0496
2023-11-25T05:04:30.044Z,988.0561
2023-11-25T05:05:30.002Z,988.0511
2023-11-25T05:06:30.015Z,988.0706
2023-11-25T05:07:30.107Z,988.0851
2023-11-25T05:08:30.017Z,988.0922
2023-11-25T05:09:30.029Z,988.1091
2023-11-25T05:10:30.090Z,988.1058
2023-11-25T05:11:30.010Z,988.1228
2023-11-25T05:12:30.010Z,988.1486
2023-11-25T05:13:30.073Z,988.1639
2023-11-25T05:14:30.008Z,988.163
2023-11-25T05:15:30.014Z,988.1727
2023-11-25T05:16:30.065Z,988.176
2023-11-25T05:17:30.194Z,988.2109
2023-11-25T05:18:30.008Z,988.2464
2023-11-25T05:19:30.020Z,988.2679
2023-11-25T05:20:30.041Z,988.2963
2023-11-25T05:21:30.008Z,988.3194
2023-11-25T05:22:30.370Z,988.3421
2023-11-25T05:23:30.006Z,988.3748
2023-11-25T05:24:30.012Z,988.3933
2023-11-25T05:25:30.068Z,988.4026
2023-11-25T05:26:30.031Z,988.4285
2023-11-25T05:27:30.020Z,988.4383
2023-11-25T05:28:30.057Z,988.4397
2023-11-25T05:29:30.021Z,988.4395
2023-11-25T05:30:30.021Z,988.4476
2023-11-25T05:31:30.063Z,988.459
2023-11-25T05:32:30.037Z,988.4758
2023-11-25T05:33:30.016Z,988.5105
2023-11-25T05:34:30.078Z,988.5345
2023-11-25T05:35:30.037Z,988.567
2023-11-25T05:36:30.009Z,988.5953
2023-11-25T05:37:30.020Z,988.5949
2023-11-25T05:38:30.024Z,988.5941
2023-11-25T05:39:30.015Z,988.5822
2023-11-25T05:40:30.054Z,988.6013
2023-11-25T05:41:30.023Z,988.6092
2023-11-25T05:42:30.010Z,988.6351
2023-11-25T05:43:30.090Z,988.6367
2023-11-25T05:44:30.021Z,988.6418
2023-11-25T05:45:30.012Z,988.6292
2023-11-25T05:46:30.122Z,988.6124
2023-11-25T05:47:30.082Z,988.6128
2023-11-25T05:48:30.015Z,988.6022
2023-11-25T05:49:30.046Z,988.5757
2023-11-25T05:50:30.008Z,988.5637
2023-11-25T05:51:30.016Z,988.5527
2023-11-25T05:52:30.052Z,988.5308
2023-11-25T05:53:30.018Z,988.5153
2023-11-25T05:54:30.016Z,988.5086
2023-11-25T05:55:30.027Z,988.4899
2023-11-25T05:56:30.019Z,988.4989
2023-11-25T05:57:30.018Z,988.5162
2023-11-25T05:58:30.029Z,988.529
2023-11-25T05:59:30.022Z,988.5461
2023-11-25T06:00:30.022Z,988.5617
2023-11-25T06:01:30.046Z,988.5585
2023-11-25T06:02:30.053Z,988.5714
2023-11-25T06:03:30.109Z,988.5848
2023-11-25T06:04:30.130Z,988.6002
2023-11-25T06:05:30.302Z,988.6216
2023-11-25T06:06:30.021Z,988.6545
2023-11-25T06:07:30.054Z,988.6831
2023-11-25T06:08:30.021Z,988.7009
2023-11-25T06:09:30.024Z,988.7364
2023-11-25T06:10:30.090Z,988.7831
2023-11-25T06:11:30.019Z,988.8088
2023-11-25T06:12:30.018Z,988.8565
2023-11-25T06:13:30.078Z,988.8826
2023-11-25T06:14:30.016Z,988.8986
2023-11-25T06:15:30.023Z,988.9169
2023-11-25T06:16:30.062Z,988.9213
2023-11-25T06:17:30.051Z,988.9333
2023-11-25T06:18:30.120Z,988.9476
2023-11-25T06:19:30.076Z,988.952
2023-11-25T06:20:30.020Z,988.9615
2023-11-25T06:21:30.035Z,988.9754
2023-11-25T06:22:30.074Z,988.9983
2023-11-25T06:23:30.051Z,989.0237
2023-11-25T06:24:30.027Z,989.0662
2023-11-25T06:25:30.088Z,989.0925
2023-11-25T06:26:30.032Z,989.1067
2023-11-25T06:27:30.021Z,989.1074
2023-11-25T06:28:30.058Z,989.1199
2023-11-25T06:29:30.022Z,989.1295
2023-11-25T06:30:30.025Z,989.1353
2023-11-25T06:31:30.049Z,989.1474
2023-11-25T06:32:30.098Z,989.1655
2023-11-25T06:33:30.052Z,989.1809
2023-11-25T06:34:30.044Z,989.2225
2023-11-25T06:35:30.031Z,989.2444
2023-11-25T06:36:30.026Z,989.2519
2023-11-25T06:37:30.036Z,989.2346
2023-11-25T06:38:30.056Z,989.2224
2023-11-25T06:39:30.089Z,989.2428
2023-11-25T06:40:30.129Z,989.2654
2023-11-25T06:41:30.031Z,989.2964
2023-11-25T06:42:30.047Z,989.326
2023-11-25T06:43:30.050Z,989.365
2023-11-25T06:44:30.027Z,989.3997
2023-11-25T06:45:30.041Z,989.4434
2023-11-25T06:46:30.114Z,989.4889
2023-11-25T06:47:30.130Z,989.515
2023-11-25T06:48:32.777Z,989.5408
2023-11-25T06:49:31.239Z,989.5491
2023-11-25T06:50:30.032Z,989.5514
2023-11-25T06:51:30.053Z,989.5603
2023-11-25T06:52:30.166Z,989.5737
2023-11-25T06:53:30.037Z,989.5911
2023-11-25T06:54:30.090Z,989.5909
2023-11-25T06:55:30.041Z,989.6017
2023-11-25T06:56:30.038Z,989.6301
2023-11-25T06:57:30.054Z,989.6781
2023-11-25T06:58:30.092Z,989.7358
2023-11-25T06:59:30.034Z,989.7679
2023-11-25T07:00:30.077Z,989.7503
2023-11-25T07:01:30.107Z,989.7054
2023-11-25T07:02:30.092Z,989.6797
2023-11-25T07:03:30.088Z,989.6627
2023-11-25T07:04:30.108Z,989.6657
2023-11-25T07:05:30.030Z,989.6362
2023-11-25T07:06:30.039Z,989.6047
2023-11-25T07:07:30.096Z,989.605
2023-11-25T07:08:30.033Z,989.6216
2023-11-25T07:09:30.071Z,989.5959
2023-11-25T07:10:30.116Z,989.5561
2023-11-25T07:11:30.068Z,989.5709
2023-11-25T07:12:30.036Z,989.5919
2023-11-25T07:13:30.076Z,989.6279
2023-11-25T07:14:30.034Z,989.6459
2023-11-25T07:15:30.036Z,989.6711
2023-11-25T07:16:30.092Z,989.6806
2023-11-25T07:17:30.132Z,989.6971
2023-11-25T07:18:30.050Z,989.7125
2023-11-25T07:19:30.088Z,989.735
2023-11-25T07:20:30.061Z,989.7458
2023-11-25T07:21:30.039Z,989.7783
2023-11-25T07:22:30.049Z,989.8254
2023-11-25T07:23:30.038Z,989.8865
2023-11-25T07:24:30.045Z,989.926
2023-11-25T07:25:30.066Z,989.9856
2023-11-25T07:26:30.047Z,990.0235
2023-11-25T07:27:30.034Z,990.0756
2023-11-25T07:28:30.054Z,990.0786
2023-11-25T07:29:30.036Z,990.0828
2023-11-25T07:30:30.049Z,990.0961
2023-11-25T07:31:30.127Z,990.1411
2023-11-25T07:32:30.093Z,990.218
2023-11-25T07:33:30.037Z,990.2889
2023-11-25T07:34:30.100Z,990.3344
2023-11-25T07:35:30.041Z,990.3933
2023-11-25T07:36:30.039Z,990.4487
2023-11-25T07:37:30.070Z,990.4708
2023-11-25T07:38:30.063Z,990.4875
2023-11-25T07:39:30.044Z,990.481
2023-11-25T07:40:30.080Z,990.4863
2023-11-25T07:41:30.045Z,990.5267
2023-11-25T07:42:30.050Z,990.5764
2023-11-25T07:43:30.195Z,990.6133
2023-11-25T07:44:30.043Z,990.6334
2023-11-25T07:45:30.051Z,990.6138
2023-11-25T07:46:30.094Z,990.5986
2023-11-25T07:47:30.199Z,990.598
2023-11-25T07:48:30.041Z,990.6083
2023-11-25T07:49:30.081Z,990.6055
2023-11-25T07:50:30.047Z,990.6268
2023-11-25T07:51:30.043Z,990.6022
2023-11-25T07:52:30.067Z,990.5952
2023-11-25T07:53:30.050Z,990.5991
2023-11-25T07:54:30.047Z,990.6145
2023-11-25T07:55:30.160Z,990.5874
2023-11-25T07:56:30.071Z,990.5674
2023-11-25T07:57:30.051Z,990.5625
2023-11-25T07:58:30.066Z,990.575
2023-11-25T07:59:30.048Z,990.5706
2023-11-25T08:00:30.046Z,990.592
2023-11-25T08:01:30.109Z,990.6177
2023-11-25T08:02:30.244Z,990.6373
2023-11-25T08:03:30.116Z,990.6494
2023-11-25T08:04:30.065Z,990.6652
2023-11-25T08:05:30.075Z,990.6783
2023-11-25T08:06:30.052Z,990.6672
2023-11-25T08:07:30.065Z,990.6503
2023-11-25T08:08:30.055Z,990.6398
2023-11-25T08:09:30.057Z,990.6072
2023-11-25T08:10:30.069Z,990.582
2023-11-25T08:11:30.056Z,990.5715
2023-11-25T08:12:30.052Z,990.5733
2023-11-25T08:13:30.095Z,990.5814
2023-11-25T08:14:30.050Z,990.5815
2023-11-25T08:15:30.051Z,990.5923
2023-11-25T08:16:30.119Z,990.5981
2023-11-25T08:17:30.073Z,990.6114
2023-11-25T08:18:30.050Z,990.6156
2023-11-25T08:19:30.075Z,990.6227
2023-11-25T08:20:30.052Z,990.6286
2023-11-25T08:21:30.055Z,990.6522
2023-11-25T08:22:30.140Z,990.695
2023-11-25T08:23:30.053Z,990.7142
2023-11-25T08:24:30.080Z,990.7192
2023-11-25T08:25:30.109Z,990.7065
2023-11-25T08:26:30.068Z,990.6934
2023-11-25T08:27:30.093Z,990.6805
2023-11-25T08:28:30.087Z,990.6766
2023-11-25T08:29:30.065Z,990.6711
2023-11-25T08:30:30.059Z,990.6744
2023-11-25T08:31:30.112Z,990.6768
2023-11-25T08:32:30.185Z,990.6802
2023-11-25T08:33:30.069Z,990.6853
2023-11-25T08:34:30.079Z,990.6912
2023-11-25T08:35:30.056Z,990.7228
2023-11-25T08:36:30.055Z,990.7576
2023-11-25T08:37:30.134Z,990.7955
2023-11-25T08:38:30.168Z,990.8204
2023-11-25T08:39:30.058Z,990.8237
2023-11-25T08:40:30.102Z,990.8066
2023-11-25T08:41:30.068Z,990.8056
2023-11-25T08:42:30.079Z,990.8059
2023-11-25T08:43:30.065Z,990.7902
2023-11-25T08:44:30.069Z,990.7946
2023-11-25T08:45:30.093Z,990.808
2023-11-25T08:46:30.128Z,990.8181
2023-11-25T08:47:30.067Z,990.8187
2023-11-25T08:48:30.060Z,990.8105
2023-11-25T08:49:30.073Z,990.8107
2023-11-25T08:50:30.110Z,990.8304
2023-11-25T08:51:30.062Z,990.8508
2023-11-25T08:52:30.068Z,990.8586
2023-11-25T08:53:30.064Z,990.8579
2023-11-25T08:54:30.062Z,990.8745
2023-11-25T08:55:30.109Z,990.861
2023-11-25T08:56:34.897Z,990.8553
2023-11-25T08:57:31.596Z,990.8421
2023-11-25T08:58:30.087Z,990.8153
2023-11-25T08:59:30.064Z,990.8308
2023-11-25T09:00:30.067Z,990.8463
2023-11-25T09:01:30.157Z,990.8628
2023-11-25T09:02:30.197Z,990.8976
2023-11-25T09:03:30.172Z,990.9188
2023-11-25T09:04:30.142Z,990.9539
2023-11-25T09:05:30.138Z,990.9641
2023-11-25T09:06:30.061Z,990.9707
2023-11-25T09:07:30.100Z,990.9367
2023-11-25T09:08:30.070Z,990.927
2023-11-25T09:09:30.076Z,990.9275
2023-11-25T09:10:30.098Z,990.9199
2023-11-25T09:11:30.070Z,990.8908
2023-11-25T09:12:30.071Z,990.8575
2023-11-25T09:13:32.968Z,990.8483
2023-11-25T09:14:31.349Z,990.8416
2023-11-25T09:15:31.046Z,990.8569
2023-11-25T09:16:31.279Z,990.8667
2023-11-25T09:17:30.093Z,990.8649
2023-11-25T09:18:30.072Z,990.873
2023-11-25T09:19:30.097Z,990.8549
2023-11-25T09:20:30.071Z,990.8463
2023-11-25T09:21:30.078Z,990.8428
2023-11-25T09:22:30.124Z,990.8466
2023-11-25T09:23:30.073Z,990.8671
2023-11-25T09:24:30.078Z,990.8879
2023-11-25T09:25:30.124Z,990.8859
2023-11-25T09:26:30.077Z,990.8931
2023-11-25T09:27:30.073Z,990.895
2023-11-25T09:28:31.512Z,990.8933
2023-11-25T09:29:30.079Z,990.8994
2023-11-25T09:30:30.072Z,990.892
2023-11-25T09:31:30.098Z,990.8732
2023-11-25T09:32:30.275Z,990.8795
2023-11-25T09:33:30.079Z,990.8971
2023-11-25T09:34:30.135Z,990.9127
2023-11-25T09:35:30.081Z,990.9294
2023-11-25T09:36:30.070Z,990.9348
2023-11-25T09:37:30.118Z,990.9343
2023-11-25T09:38:30.071Z,990.9411
2023-11-25T09:39:30.078Z,990.9434
2023-11-25T09:40:30.128Z,990.9384
2023-11-25T09:41:30.090Z,990.9316
2023-11-25T09:42:30.073Z,990.9113
2023-11-25T09:43:30.107Z,990.9088
2023-11-25T09:44:30.079Z,990.9291
2023-11-25T09:45:30.185Z,990.9412
2023-11-25T09:46:30.120Z,990.9519
2023-11-25T09:47:30.098Z,990.9836
2023-11-25T09:48:30.080Z,991.0204
2023-11-25T09:49:30.109Z,991.0321
2023-11-25T09:50:30.083Z,991.0593
2023-11-25T09:51:30.076Z,991.0911
2023-11-25T09:52:30.104Z,991.1211
2023-11-25T09:53:30.078Z,991.1872
2023-11-25T09:54:30.095Z,991.2231
2023-11-25T09:55:30.139Z,991.2574
2023-11-25T09:56:30.081Z,991.2836
2023-11-25T09:57:30.098Z,991.3039
2023-11-25T09:58:30.119Z,991.3348
2023-11-25T09:59:30.079Z,991.3663
2023-11-25T10:00:30.077Z,991.4038
2023-11-25T10:01:30.177Z,991.4331
2023-11-25T10:02:30.208Z,991.4574
2023-11-25T10:03:30.154Z,991.4803
2023-11-25T10:04:30.123Z,991.4949
2023-11-25T10:05:31.946Z,991.5226
2023-11-25T10:06:31.415Z,991.5747
2023-11-25T10:07:30.106Z,991.5945
2023-11-25T10:08:30.080Z,991.5906
2023-11-25T10:09:30.080Z,991.6229
2023-11-25T10:10:30.492Z,991.6409
2023-11-25T10:11:30.081Z,991.6593
2023-11-25T10:12:30.090Z,991.6546
2023-11-25T10:13:30.119Z,991.642
2023-11-25T10:14:30.080Z,991.6252
2023-11-25T10:15:30.079Z,991.6401
2023-11-25T10:16:30.147Z,991.6642
2023-11-25T10:17:30.122Z,991.6699
2023-11-25T10:18:30.084Z,991.6824
2023-11-25T10:19:30.185Z,991.6938
2023-11-25T10:20:30.082Z,991.6938
2023-11-25T10:21:30.083Z,991.7068
2023-11-25T10:22:30.193Z,991.7142
2023-11-25T10:23:30.082Z,991.7578
2023-11-25T10:24:30.087Z,991.8038
2023-11-25T10:25:30.115Z,991.8416
2023-11-25T10:26:30.097Z,991.8683
2023-11-25T10:27:30.090Z,991.8714
2023-11-25T10:28:30.097Z,991.9088
2023-11-25T10:29:30.104Z,991.93
2023-11-25T10:30:30.267Z,991.9553
2023-11-25T10:31:30.109Z,991.9726
2023-11-25T10:32:30.102Z,992.0154
2023-11-25T10:33:30.146Z,992.0336
2023-11-25T10:34:30.102Z,992.0546
2023-11-25T10:35:30.091Z,992.0584
2023-11-25T10:36:30.093Z,992.0773
2023-11-25T10:37:30.101Z,992.0703
2023-11-25T10:38:30.150Z,992.0603
2023-11-25T10:39:30.096Z,992.0572
2023-11-25T10:40:30.145Z,992.0758
2023-11-25T10:41:30.098Z,992.1011
2023-11-25T10:42:30.091Z,992.1442
2023-11-25T10:43:30.109Z,992.1637
2023-11-25T10:44:30.097Z,992.175
2023-11-25T10:45:30.099Z,992.1674
2023-11-25T10:46:30.138Z,992.1614
2023-11-25T10:47:30.127Z,992.1442
2023-11-25T10:48:30.091Z,992.1395
2023-11-25T10:49:30.119Z,992.1454
2023-11-25T10:50:30.090Z,992.1631
2023-11-25T10:51:30.092Z,992.1622
2023-11-25T10:52:30.121Z,992.1636
2023-11-25T10:53:30.101Z,992.1753
2023-11-25T10:54:31.214Z,992.185
2023-11-25T10:55:30.299Z,992.1926
2023-11-25T10:56:30.163Z,992.1994
2023-11-25T10:57:30.093Z,992.212
2023-11-25T10:58:30.129Z,992.2158
2023-11-25T10:59:30.104Z,992.2353
2023-11-25T11:00:30.101Z,992.2745
2023-11-25T11:01:30.191Z,992.3038
2023-11-25T11:02:30.228Z,992.3019
2023-11-25T11:03:30.122Z,992.3267
2023-11-25T11:04:30.134Z,992.3153
2023-11-25T11:05:30.122Z,992.3206
2023-11-25T11:06:30.138Z,992.3265
2023-11-25T11:07:30.147Z,992.3367
2023-11-25T11:08:30.097Z,992.3455
2023-11-25T11:09:30.113Z,992.3695
2023-11-25T11:10:30.156Z,992.3723
2023-11-25T11:11:30.118Z,992.3558
2023-11-25T11:12:30.100Z,992.3359
2023-11-25T11:13:30.132Z,992.3231
2023-11-25T11:14:30.114Z,992.338
2023-11-25T11:15:30.115Z,992.3264
2023-11-25T11:16:30.119Z,992.324
2023-11-25T11:17:30.168Z,992.3234
2023-11-25T11:18:30.197Z,992.3398
2023-11-25T11:19:30.318Z,992.3613
2023-11-25T11:20:30.119Z,992.3803
2023-11-25T11:21:30.102Z,992.4214
2023-11-25T11:22:30.128Z,992.4425
2023-11-25T11:23:30.138Z,992.466
2023-11-25T11:24:30.106Z,992.493
2023-11-25T11:25:30.214Z,992.5267
2023-11-25T11:26:30.115Z,992.5424
2023-11-25T11:27:30.101Z,992.5638
2023-11-25T11:28:30.112Z,992.5875
2023-11-25T11:29:30.194Z,992.6039
2023-11-25T11:30:30.106Z,992.6169
2023-11-25T11:31:30.186Z,992.6472
2023-11-25T11:32:30.181Z,992.6857
2023-11-25T11:33:30.120Z,992.7431
2023-11-25T11:34:30.181Z,992.7991
2023-11-25T11:35:30.112Z,992.853
2023-11-25T11:36:30.106Z,992.9158
2023-11-25T11:37:30.129Z,992.9451
2023-11-25T11:38:30.126Z,992.9769
2023-11-25T11:39:30.107Z,993.008
2023-11-25T11:40:30.141Z,993.0421
2023-11-25T11:41:30.167Z,993.0595
2023-11-25T11:42:30.118Z,993.0637
2023-11-25T11:43:30.255Z,993.0754
2023-11-25T11:44:30.108Z,993.0842
2023-11-25T11:45:30.112Z,993.098
2023-11-25T11:46:30.131Z,993.1099